sensor_id;sensor_type;location;lat;lon;timestamp;temperature;humidity
7844;DHT22;3967;48.702;9.326;2023-05-10T00:02:07;16.40;99.90
7844;DHT22;3967;48.702;9.326;2023-05-10T00:04:34;16.50;99.90
7844;DHT22;3967;48.702;9.326;2023-05-10T00:07:01;16.40;99.90
7844;DHT22;3967;48.702;9.326;2023-05-10T00:09:28;16.50;99.90
7844;DHT22;3967;48.702;9.326;2023-05-10T00:11:54;16.50;99.90
7844;DHT22;3967;48.702;9.326;2023-05-10T00:14:21;16.50;99.90
7844;DHT22;3967;48.702;9.326;2023-05-10T00:16:48;16.40;99.90
7844;DHT22;3967;48.702;9.326;2023-05-10T00:19:14;16.50;99.90
7844;DHT22;3967;48.702;9.326;2023-05-10T00:21:41;16.50;99.90
7844;DHT22;3967;48.702;9.326;2023-05-10T00:24:08;16.60;99.90
7844;DHT22;3967;48.702;9.326;2023-05-10T00:26:35;16.60;99.90
7844;DHT22;3967;48.702;9.326;2023-05-10T00:29:02;16.60;99.90
7844;DHT22;3967;48.702;9.326;2023-05-10T00:31:28;16.30;99.90
7844;DHT22;3967;48.702;9.326;2023-05-10T00:33:55;16.20;99.90
7844;DHT22;3967;48.702;9.326;2023-05-10T00:36:22;15.90;99.90
7844;DHT22;3967;48.702;9.326;2023-05-10T00:41:23;15.70;99.90
7844;DHT22;3967;48.702;9.326;2023-05-10T00:43:50;15.40;99.90
7844;DHT22;3967;48.702;9.326;2023-05-10T00:46:17;15.40;99.90
7844;DHT22;3967;48.702;9.326;2023-05-10T00:48:44;15.30;99.90
7844;DHT22;3967;48.702;9.326;2023-05-10T00:51:12;15.20;99.90
7844;DHT22;3967;48.702;9.326;2023-05-10T00:53:38;15.40;99.90
7844;DHT22;3967;48.702;9.326;2023-05-10T00:56:05;15.70;99.90
7844;DHT22;3967;48.702;9.326;2023-05-10T00:58:32;15.70;99.90
7844;DHT22;3967;48.702;9.326;2023-05-10T01:01:00;15.80;99.90
7844;DHT22;3967;48.702;9.326;2023-05-10T01:03:27;15.80;99.90
7844;DHT22;3967;48.702;9.326;2023-05-10T01:05:55;15.80;99.90
7844;DHT22;3967;48.702;9.326;2023-05-10T01:15:17;15.30;99.90
7844;DHT22;3967;48.702;9.326;2023-05-10T01:17:46;15.30;99.90
7844;DHT22;3967;48.702;9.326;2023-05-10T01:20:14;15.20;99.90
7844;DHT22;3967;48.702;9.326;2023-05-10T01:34:09;15.10;99.90
7844;DHT22;3967;48.702;9.326;2023-05-10T01:37:13;15.20;99.90
7844;DHT22;3967;48.702;9.326;2023-05-10T01:43:05;15.20;99.90
7844;DHT22;3967;48.702;9.326;2023-05-10T01:45:41;15.20;99.90
7844;DHT22;3967;48.702;9.326;2023-05-10T01:48:14;15.20;99.90
7844;DHT22;3967;48.702;9.326;2023-05-10T01:50:43;15.10;99.90
7844;DHT22;3967;48.702;9.326;2023-05-10T01:53:11;15.20;99.90
7844;DHT22;3967;48.702;9.326;2023-05-10T01:55:44;15.20;99.90
7844;DHT22;3967;48.702;9.326;2023-05-10T01:58:32;15.30;99.90
7844;DHT22;3967;48.702;9.326;2023-05-10T02:01:02;15.20;99.90
7844;DHT22;3967;48.702;9.326;2023-05-10T02:03:31;15.30;99.90
7844;DHT22;3967;48.702;9.326;2023-05-10T02:05:59;15.30;99.90
7844;DHT22;3967;48.702;9.326;2023-05-10T02:08:26;15.30;99.90
7844;DHT22;3967;48.702;9.326;2023-05-10T02:10:55;15.40;99.90
7844;DHT22;3967;48.702;9.326;2023-05-10T02:13:24;15.40;99.90
7844;DHT22;3967;48.702;9.326;2023-05-10T02:15:53;15.30;99.90
7844;DHT22;3967;48.702;9.326;2023-05-10T02:18:22;15.40;99.90
7844;DHT22;3967;48.702;9.326;2023-05-10T02:20:51;15.30;99.90
7844;DHT22;3967;48.702;9.326;2023-05-10T02:23:19;15.30;99.90
7844;DHT22;3967;48.702;9.326;2023-05-10T02:25:48;15.30;99.90
7844;DHT22;3967;48.702;9.326;2023-05-10T02:28:16;15.20;99.90
7844;DHT22;3967;48.702;9.326;2023-05-10T02:30:43;15.30;99.90
7844;DHT22;3967;48.702;9.326;2023-05-10T02:33:11;15.40;99.90
7844;DHT22;3967;48.702;9.326;2023-05-10T02:35:38;15.30;99.90
7844;DHT22;3967;48.702;9.326;2023-05-10T02:38:06;15.30;99.90
7844;DHT22;3967;48.702;9.326;2023-05-10T02:40:34;15.30;99.90
7844;DHT22;3967;48.702;9.326;2023-05-10T02:43:02;15.30;99.90
7844;DHT22;3967;48.702;9.326;2023-05-10T02:45:31;15.40;99.90
7844;DHT22;3967;48.702;9.326;2023-05-10T02:47:59;15.40;99.90
7844;DHT22;3967;48.702;9.326;2023-05-10T02:50:28;15.50;99.90
7844;DHT22;3967;48.702;9.326;2023-05-10T02:53:00;15.50;99.90
7844;DHT22;3967;48.702;9.326;2023-05-10T02:55:34;15.50;99.90
7844;DHT22;3967;48.702;9.326;2023-05-10T02:58:02;15.50;99.90
7844;DHT22;3967;48.702;9.326;2023-05-10T03:00:29;15.40;99.90
7844;DHT22;3967;48.702;9.326;2023-05-10T03:02:56;15.30;99.90
7844;DHT22;3967;48.702;9.326;2023-05-10T03:05:23;15.30;99.90
7844;DHT22;3967;48.702;9.326;2023-05-10T03:07:50;15.30;99.90
7844;DHT22;3967;48.702;9.326;2023-05-10T03:10:18;15.40;99.90
7844;DHT22;3967;48.702;9.326;2023-05-10T03:15:45;15.30;99.90
7844;DHT22;3967;48.702;9.326;2023-05-10T03:21:04;15.40;99.90
7844;DHT22;3967;48.702;9.326;2023-05-10T03:26:02;15.30;99.90
7844;DHT22;3967;48.702;9.326;2023-05-10T03:28:31;15.30;99.90
7844;DHT22;3967;48.702;9.326;2023-05-10T03:31:00;15.40;99.90
7844;DHT22;3967;48.702;9.326;2023-05-10T03:33:27;15.30;99.90
7844;DHT22;3967;48.702;9.326;2023-05-10T03:35:53;15.30;99.90
7844;DHT22;3967;48.702;9.326;2023-05-10T03:38:20;15.30;99.90
7844;DHT22;3967;48.702;9.326;2023-05-10T03:40:46;15.40;99.90
7844;DHT22;3967;48.702;9.326;2023-05-10T03:43:13;15.40;99.90
7844;DHT22;3967;48.702;9.326;2023-05-10T03:45:40;15.30;99.90
7844;DHT22;3967;48.702;9.326;2023-05-10T03:48:06;15.30;99.90
7844;DHT22;3967;48.702;9.326;2023-05-10T03:50:33;15.30;99.90
7844;DHT22;3967;48.702;9.326;2023-05-10T03:53:00;15.40;99.90
7844;DHT22;3967;48.702;9.326;2023-05-10T03:55:27;15.30;99.90
7844;DHT22;3967;48.702;9.326;2023-05-10T03:57:54;15.30;99.90
7844;DHT22;3967;48.702;9.326;2023-05-10T04:00:21;15.20;99.90
7844;DHT22;3967;48.702;9.326;2023-05-10T04:02:48;15.10;99.90
7844;DHT22;3967;48.702;9.326;2023-05-10T04:05:14;15.20;99.90
7844;DHT22;3967;48.702;9.326;2023-05-10T04:07:41;15.20;99.90
7844;DHT22;3967;48.702;9.326;2023-05-10T04:10:08;15.10;99.90
7844;DHT22;3967;48.702;9.326;2023-05-10T04:12:35;15.10;99.90
7844;DHT22;3967;48.702;9.326;2023-05-10T04:15:02;15.00;99.90
7844;DHT22;3967;48.702;9.326;2023-05-10T04:17:28;15.10;99.90
7844;DHT22;3967;48.702;9.326;2023-05-10T04:19:55;15.10;99.90
7844;DHT22;3967;48.702;9.326;2023-05-10T04:22:22;15.00;99.90
7844;DHT22;3967;48.702;9.326;2023-05-10T04:24:49;15.00;99.90
7844;DHT22;3967;48.702;9.326;2023-05-10T04:27:16;14.90;99.90
7844;DHT22;3967;48.702;9.326;2023-05-10T04:29:42;14.80;99.90
7844;DHT22;3967;48.702;9.326;2023-05-10T04:32:09;14.70;99.90
7844;DHT22;3967;48.702;9.326;2023-05-10T04:34:36;14.50;99.90
7844;DHT22;3967;48.702;9.326;2023-05-10T04:37:03;14.60;99.90
7844;DHT22;3967;48.702;9.326;2023-05-10T04:39:30;14.70;99.90
7844;DHT22;3967;48.702;9.326;2023-05-10T04:41:57;14.70;99.90
7844;DHT22;3967;48.702;9.326;2023-05-10T04:44:24;14.60;99.90
7844;DHT22;3967;48.702;9.326;2023-05-10T04:46:50;14.60;99.90
7844;DHT22;3967;48.702;9.326;2023-05-10T04:49:17;14.70;99.90
7844;DHT22;3967;48.702;9.326;2023-05-10T04:51:44;14.60;99.90
7844;DHT22;3967;48.702;9.326;2023-05-10T04:54:12;14.70;99.90
7844;DHT22;3967;48.702;9.326;2023-05-10T04:56:38;14.80;99.90
7844;DHT22;3967;48.702;9.326;2023-05-10T04:59:05;14.70;99.90
7844;DHT22;3967;48.702;9.326;2023-05-10T05:01:32;14.70;99.90
7844;DHT22;3967;48.702;9.326;2023-05-10T05:03:59;14.70;99.90
7844;DHT22;3967;48.702;9.326;2023-05-10T05:06:26;14.70;99.90
7844;DHT22;3967;48.702;9.326;2023-05-10T05:08:53;14.70;99.90
7844;DHT22;3967;48.702;9.326;2023-05-10T05:11:20;14.70;99.90
7844;DHT22;3967;48.702;9.326;2023-05-10T05:13:47;14.70;99.90
7844;DHT22;3967;48.702;9.326;2023-05-10T05:16:14;14.70;99.90
7844;DHT22;3967;48.702;9.326;2023-05-10T05:18:40;14.80;99.90
7844;DHT22;3967;48.702;9.326;2023-05-10T05:21:17;14.90;99.90
7844;DHT22;3967;48.702;9.326;2023-05-10T05:23:45;14.90;99.90
7844;DHT22;3967;48.702;9.326;2023-05-10T05:26:11;15.00;99.90
7844;DHT22;3967;48.702;9.326;2023-05-10T05:28:38;15.10;99.90
7844;DHT22;3967;48.702;9.326;2023-05-10T05:31:06;15.00;99.90
7844;DHT22;3967;48.702;9.326;2023-05-10T05:33:34;15.00;99.90
7844;DHT22;3967;48.702;9.326;2023-05-10T05:36:04;14.90;99.90
7844;DHT22;3967;48.702;9.326;2023-05-10T05:38:32;15.00;99.90
7844;DHT22;3967;48.702;9.326;2023-05-10T05:40:58;15.10;99.90
7844;DHT22;3967;48.702;9.326;2023-05-10T05:43:26;14.90;99.90
7844;DHT22;3967;48.702;9.326;2023-05-10T05:45:52;15.10;99.90
7844;DHT22;3967;48.702;9.326;2023-05-10T05:48:20;15.10;99.90
7844;DHT22;3967;48.702;9.326;2023-05-10T05:50:47;15.20;99.90
7844;DHT22;3967;48.702;9.326;2023-05-10T05:53:14;15.20;99.90
7844;DHT22;3967;48.702;9.326;2023-05-10T05:55:50;15.20;99.90
7844;DHT22;3967;48.702;9.326;2023-05-10T05:58:17;15.20;99.90
7844;DHT22;3967;48.702;9.326;2023-05-10T06:00:43;15.20;99.90
7844;DHT22;3967;48.702;9.326;2023-05-10T06:03:10;15.30;99.90
7844;DHT22;3967;48.702;9.326;2023-05-10T06:05:37;15.30;99.90
7844;DHT22;3967;48.702;9.326;2023-05-10T06:08:04;15.20;99.90
7844;DHT22;3967;48.702;9.326;2023-05-10T06:10:30;15.20;99.90
7844;DHT22;3967;48.702;9.326;2023-05-10T06:12:57;15.20;99.90
7844;DHT22;3967;48.702;9.326;2023-05-10T06:15:24;15.20;99.90
7844;DHT22;3967;48.702;9.326;2023-05-10T06:17:51;15.20;99.90
7844;DHT22;3967;48.702;9.326;2023-05-10T06:20:18;15.10;99.90
7844;DHT22;3967;48.702;9.326;2023-05-10T06:22:45;15.10;99.90
7844;DHT22;3967;48.702;9.326;2023-05-10T06:25:12;15.20;99.90
7844;DHT22;3967;48.702;9.326;2023-05-10T06:27:38;15.30;99.90
7844;DHT22;3967;48.702;9.326;2023-05-10T06:30:06;15.40;99.90
7844;DHT22;3967;48.702;9.326;2023-05-10T06:32:39;15.30;99.90
7844;DHT22;3967;48.702;9.326;2023-05-10T06:35:06;15.40;99.90
7844;DHT22;3967;48.702;9.326;2023-05-10T06:37:33;15.30;99.90
7844;DHT22;3967;48.702;9.326;2023-05-10T06:40:00;15.50;99.90
7844;DHT22;3967;48.702;9.326;2023-05-10T06:42:28;15.60;99.90
7844;DHT22;3967;48.702;9.326;2023-05-10T06:44:54;15.60;99.90
7844;DHT22;3967;48.702;9.326;2023-05-10T06:47:21;15.50;99.90
7844;DHT22;3967;48.702;9.326;2023-05-10T06:49:48;15.40;99.90
7844;DHT22;3967;48.702;9.326;2023-05-10T06:52:14;15.40;99.90
7844;DHT22;3967;48.702;9.326;2023-05-10T06:54:41;15.40;99.90
7844;DHT22;3967;48.702;9.326;2023-05-10T06:57:08;15.40;99.90
7844;DHT22;3967;48.702;9.326;2023-05-10T06:59:54;15.30;99.90
7844;DHT22;3967;48.702;9.326;2023-05-10T07:02:22;15.50;99.90
7844;DHT22;3967;48.702;9.326;2023-05-10T07:04:49;15.40;99.90
7844;DHT22;3967;48.702;9.326;2023-05-10T07:07:18;15.40;99.90
7844;DHT22;3967;48.702;9.326;2023-05-10T07:09:45;15.40;99.90
7844;DHT22;3967;48.702;9.326;2023-05-10T07:12:12;15.50;99.90
7844;DHT22;3967;48.702;9.326;2023-05-10T07:14:41;15.40;99.90
7844;DHT22;3967;48.702;9.326;2023-05-10T07:17:08;15.30;99.90
7844;DHT22;3967;48.702;9.326;2023-05-10T07:19:35;15.30;99.90
7844;DHT22;3967;48.702;9.326;2023-05-10T07:22:02;15.40;99.90
7844;DHT22;3967;48.702;9.326;2023-05-10T07:24:29;15.40;99.90
7844;DHT22;3967;48.702;9.326;2023-05-10T07:26:57;15.30;99.90
7844;DHT22;3967;48.702;9.326;2023-05-10T07:29:24;15.20;99.90
7844;DHT22;3967;48.702;9.326;2023-05-10T07:31:51;15.40;99.90
7844;DHT22;3967;48.702;9.326;2023-05-10T07:34:18;15.30;99.90
7844;DHT22;3967;48.702;9.326;2023-05-10T07:36:44;15.40;99.90
7844;DHT22;3967;48.702;9.326;2023-05-10T07:39:11;15.40;99.90
7844;DHT22;3967;48.702;9.326;2023-05-10T07:41:50;15.50;99.90
7844;DHT22;3967;48.702;9.326;2023-05-10T07:44:16;15.40;99.90
7844;DHT22;3967;48.702;9.326;2023-05-10T07:46:46;15.50;99.90
7844;DHT22;3967;48.702;9.326;2023-05-10T07:49:13;15.50;99.90
7844;DHT22;3967;48.702;9.326;2023-05-10T07:51:39;15.70;99.90
7844;DHT22;3967;48.702;9.326;2023-05-10T07:54:06;15.70;99.90
7844;DHT22;3967;48.702;9.326;2023-05-10T07:56:33;15.70;99.90
7844;DHT22;3967;48.702;9.326;2023-05-10T07:59:02;15.70;99.90
7844;DHT22;3967;48.702;9.326;2023-05-10T08:01:34;15.80;99.90
7844;DHT22;3967;48.702;9.326;2023-05-10T08:04:01;16.00;99.90
7844;DHT22;3967;48.702;9.326;2023-05-10T08:06:28;16.00;99.90
7844;DHT22;3967;48.702;9.326;2023-05-10T08:08:56;16.00;99.90
7844;DHT22;3967;48.702;9.326;2023-05-10T08:11:23;16.00;99.90
7844;DHT22;3967;48.702;9.326;2023-05-10T08:13:50;16.00;99.90
7844;DHT22;3967;48.702;9.326;2023-05-10T08:16:17;16.00;99.90
7844;DHT22;3967;48.702;9.326;2023-05-10T08:18:45;15.90;99.90
7844;DHT22;3967;48.702;9.326;2023-05-10T08:21:13;15.80;99.90
7844;DHT22;3967;48.702;9.326;2023-05-10T08:23:41;15.90;99.90
7844;DHT22;3967;48.702;9.326;2023-05-10T08:26:07;15.90;99.90
7844;DHT22;3967;48.702;9.326;2023-05-10T08:28:34;16.00;99.90
7844;DHT22;3967;48.702;9.326;2023-05-10T08:31:01;16.10;99.90
7844;DHT22;3967;48.702;9.326;2023-05-10T08:33:28;16.00;99.90
7844;DHT22;3967;48.702;9.326;2023-05-10T08:35:54;16.20;99.90
7844;DHT22;3967;48.702;9.326;2023-05-10T08:38:21;16.10;99.90
7844;DHT22;3967;48.702;9.326;2023-05-10T08:40:49;16.10;99.90
7844;DHT22;3967;48.702;9.326;2023-05-10T08:43:17;16.10;99.90
7844;DHT22;3967;48.702;9.326;2023-05-10T08:45:45;16.00;99.90
7844;DHT22;3967;48.702;9.326;2023-05-10T08:48:14;16.10;99.90
7844;DHT22;3967;48.702;9.326;2023-05-10T08:50:42;16.20;99.90
7844;DHT22;3967;48.702;9.326;2023-05-10T08:53:11;16.40;99.90
7844;DHT22;3967;48.702;9.326;2023-05-10T08:55:38;16.40;99.90
7844;DHT22;3967;48.702;9.326;2023-05-10T08:58:06;16.40;99.90
7844;DHT22;3967;48.702;9.326;2023-05-10T09:00:34;16.40;99.90
7844;DHT22;3967;48.702;9.326;2023-05-10T09:03:03;16.70;99.90
7844;DHT22;3967;48.702;9.326;2023-05-10T09:05:30;16.50;99.90
7844;DHT22;3967;48.702;9.326;2023-05-10T09:07:57;16.40;99.90
7844;DHT22;3967;48.702;9.326;2023-05-10T09:10:27;16.50;99.90
7844;DHT22;3967;48.702;9.326;2023-05-10T09:12:56;16.60;99.90
7844;DHT22;3967;48.702;9.326;2023-05-10T09:15:25;16.70;99.90
7844;DHT22;3967;48.702;9.326;2023-05-10T09:17:52;16.90;99.90
7844;DHT22;3967;48.702;9.326;2023-05-10T09:20:19;16.90;99.90
7844;DHT22;3967;48.702;9.326;2023-05-10T09:22:46;16.80;99.90
7844;DHT22;3967;48.702;9.326;2023-05-10T09:25:16;16.60;99.90
7844;DHT22;3967;48.702;9.326;2023-05-10T09:27:45;16.80;99.80
7844;DHT22;3967;48.702;9.326;2023-05-10T09:30:38;16.70;99.00
7844;DHT22;3967;48.702;9.326;2023-05-10T09:33:05;16.70;99.80
7844;DHT22;3967;48.702;9.326;2023-05-10T09:35:33;16.70;99.70
7844;DHT22;3967;48.702;9.326;2023-05-10T09:38:02;16.80;99.40
7844;DHT22;3967;48.702;9.326;2023-05-10T09:40:30;16.80;99.30
7844;DHT22;3967;48.702;9.326;2023-05-10T09:45:29;16.90;98.40
7844;DHT22;3967;48.702;9.326;2023-05-10T09:47:57;17.00;97.30
7844;DHT22;3967;48.702;9.326;2023-05-10T09:50:24;17.10;97.60
7844;DHT22;3967;48.702;9.326;2023-05-10T09:52:56;17.10;97.20
7844;DHT22;3967;48.702;9.326;2023-05-10T09:58:07;16.80;96.40
7844;DHT22;3967;48.702;9.326;2023-05-10T10:00:38;16.70;96.50
7844;DHT22;3967;48.702;9.326;2023-05-10T10:03:13;16.70;98.80
7844;DHT22;3967;48.702;9.326;2023-05-10T10:05:41;16.70;99.80
7844;DHT22;3967;48.702;9.326;2023-05-10T10:08:10;16.60;99.90
7844;DHT22;3967;48.702;9.326;2023-05-10T10:10:38;16.60;99.90
7844;DHT22;3967;48.702;9.326;2023-05-10T10:13:08;16.80;99.20
7844;DHT22;3967;48.702;9.326;2023-05-10T10:15:35;17.10;99.00
7844;DHT22;3967;48.702;9.326;2023-05-10T10:18:02;17.20;98.30
7844;DHT22;3967;48.702;9.326;2023-05-10T10:20:33;17.30;97.50
7844;DHT22;3967;48.702;9.326;2023-05-10T10:23:00;17.50;97.20
7844;DHT22;3967;48.702;9.326;2023-05-10T10:25:26;17.40;94.50
7844;DHT22;3967;48.702;9.326;2023-05-10T10:30:41;17.70;95.10
7844;DHT22;3967;48.702;9.326;2023-05-10T10:36:02;18.00;94.20
7844;DHT22;3967;48.702;9.326;2023-05-10T10:38:37;17.80;92.60
7844;DHT22;3967;48.702;9.326;2023-05-10T10:41:27;17.80;93.10
7844;DHT22;3967;48.702;9.326;2023-05-10T10:49:27;18.90;92.20
7844;DHT22;3967;48.702;9.326;2023-05-10T10:52:22;18.90;91.30
7844;DHT22;3967;48.702;9.326;2023-05-10T10:57:24;18.90;91.10
7844;DHT22;3967;48.702;9.326;2023-05-10T11:02:55;18.70;90.40
7844;DHT22;3967;48.702;9.326;2023-05-10T11:08:14;18.50;91.20
7844;DHT22;3967;48.702;9.326;2023-05-10T11:13:42;18.60;90.60
7844;DHT22;3967;48.702;9.326;2023-05-10T11:16:16;18.30;88.80
7844;DHT22;3967;48.702;9.326;2023-05-10T11:21:32;18.30;89.10
7844;DHT22;3967;48.702;9.326;2023-05-10T11:24:00;18.50;89.70
7844;DHT22;3967;48.702;9.326;2023-05-10T11:26:34;18.00;90.50
7844;DHT22;3967;48.702;9.326;2023-05-10T11:29:01;18.00;91.20
7844;DHT22;3967;48.702;9.326;2023-05-10T11:31:29;17.70;90.20
7844;DHT22;3967;48.702;9.326;2023-05-10T11:33:58;17.40;87.30
7844;DHT22;3967;48.702;9.326;2023-05-10T11:36:26;17.00;85.30
7844;DHT22;3967;48.702;9.326;2023-05-10T11:38:55;17.00;84.00
7844;DHT22;3967;48.702;9.326;2023-05-10T11:41:23;16.90;84.50
7844;DHT22;3967;48.702;9.326;2023-05-10T11:43:52;17.20;84.40
7844;DHT22;3967;48.702;9.326;2023-05-10T11:46:23;17.20;86.20
7844;DHT22;3967;48.702;9.326;2023-05-10T11:48:52;17.10;86.30
7844;DHT22;3967;48.702;9.326;2023-05-10T11:51:25;17.10;86.40
7844;DHT22;3967;48.702;9.326;2023-05-10T11:53:56;17.20;87.10
7844;DHT22;3967;48.702;9.326;2023-05-10T11:56:23;17.00;86.70
7844;DHT22;3967;48.702;9.326;2023-05-10T11:58:55;16.80;87.80
7844;DHT22;3967;48.702;9.326;2023-05-10T12:01:23;17.00;91.00
7844;DHT22;3967;48.702;9.326;2023-05-10T12:03:51;16.90;92.90
7844;DHT22;3967;48.702;9.326;2023-05-10T12:06:20;16.80;93.90
7844;DHT22;3967;48.702;9.326;2023-05-10T12:08:48;17.10;95.20
7844;DHT22;3967;48.702;9.326;2023-05-10T12:11:19;17.10;95.70
7844;DHT22;3967;48.702;9.326;2023-05-10T12:13:47;17.20;95.90
7844;DHT22;3967;48.702;9.326;2023-05-10T12:16:16;17.10;96.40
7844;DHT22;3967;48.702;9.326;2023-05-10T12:18:44;17.30;97.40
7844;DHT22;3967;48.702;9.326;2023-05-10T12:21:12;17.30;97.80
7844;DHT22;3967;48.702;9.326;2023-05-10T12:23:39;17.40;97.60
7844;DHT22;3967;48.702;9.326;2023-05-10T12:26:09;17.30;97.70
7844;DHT22;3967;48.702;9.326;2023-05-10T12:28:37;17.40;98.50
7844;DHT22;3967;48.702;9.326;2023-05-10T12:31:04;16.80;97.50
7844;DHT22;3967;48.702;9.326;2023-05-10T12:33:42;16.60;99.30
7844;DHT22;3967;48.702;9.326;2023-05-10T12:36:14;16.60;99.90
7844;DHT22;3967;48.702;9.326;2023-05-10T12:38:42;16.50;99.50
7844;DHT22;3967;48.702;9.326;2023-05-10T12:41:17;16.50;99.30
7844;DHT22;3967;48.702;9.326;2023-05-10T12:43:44;16.70;99.30
7844;DHT22;3967;48.702;9.326;2023-05-10T12:46:17;16.80;98.00
7844;DHT22;3967;48.702;9.326;2023-05-10T12:48:45;16.80;99.90
7844;DHT22;3967;48.702;9.326;2023-05-10T12:51:13;16.80;99.50
7844;DHT22;3967;48.702;9.326;2023-05-10T12:53:43;16.60;99.90
7844;DHT22;3967;48.702;9.326;2023-05-10T12:56:15;16.40;99.90
7844;DHT22;3967;48.702;9.326;2023-05-10T12:58:41;16.30;99.90
7844;DHT22;3967;48.702;9.326;2023-05-10T13:01:08;15.90;99.90
7844;DHT22;3967;48.702;9.326;2023-05-10T13:03:35;15.70;99.90
7844;DHT22;3967;48.702;9.326;2023-05-10T13:06:02;15.80;99.90
7844;DHT22;3967;48.702;9.326;2023-05-10T13:08:28;16.00;99.90
7844;DHT22;3967;48.702;9.326;2023-05-10T13:11:00;16.20;99.90
7844;DHT22;3967;48.702;9.326;2023-05-10T13:13:27;16.20;99.90
7844;DHT22;3967;48.702;9.326;2023-05-10T13:15:54;16.20;99.90
7844;DHT22;3967;48.702;9.326;2023-05-10T13:18:21;16.20;99.90
7844;DHT22;3967;48.702;9.326;2023-05-10T13:20:47;16.20;99.90
7844;DHT22;3967;48.702;9.326;2023-05-10T13:23:16;16.20;99.90
7844;DHT22;3967;48.702;9.326;2023-05-10T13:25:42;16.10;99.90
7844;DHT22;3967;48.702;9.326;2023-05-10T13:28:09;16.10;99.90
7844;DHT22;3967;48.702;9.326;2023-05-10T13:30:36;16.20;99.90
7844;DHT22;3967;48.702;9.326;2023-05-10T13:33:03;16.30;99.90
7844;DHT22;3967;48.702;9.326;2023-05-10T13:35:29;16.50;99.90
7844;DHT22;3967;48.702;9.326;2023-05-10T13:37:56;16.50;99.90
7844;DHT22;3967;48.702;9.326;2023-05-10T13:40:24;16.50;99.90
7844;DHT22;3967;48.702;9.326;2023-05-10T13:42:50;16.60;99.90
7844;DHT22;3967;48.702;9.326;2023-05-10T13:45:17;16.60;99.90
7844;DHT22;3967;48.702;9.326;2023-05-10T13:47:44;16.70;99.90
7844;DHT22;3967;48.702;9.326;2023-05-10T13:50:11;16.80;99.90
7844;DHT22;3967;48.702;9.326;2023-05-10T13:52:38;16.90;99.90
7844;DHT22;3967;48.702;9.326;2023-05-10T13:55:05;16.80;99.90
7844;DHT22;3967;48.702;9.326;2023-05-10T13:57:31;16.90;99.90
7844;DHT22;3967;48.702;9.326;2023-05-10T14:00:01;16.90;99.90
7844;DHT22;3967;48.702;9.326;2023-05-10T14:02:28;17.10;99.90
7844;DHT22;3967;48.702;9.326;2023-05-10T14:04:54;16.90;99.90
7844;DHT22;3967;48.702;9.326;2023-05-10T14:07:21;16.70;99.90
7844;DHT22;3967;48.702;9.326;2023-05-10T14:09:48;16.60;99.90
7844;DHT22;3967;48.702;9.326;2023-05-10T14:12:14;16.80;99.90
7844;DHT22;3967;48.702;9.326;2023-05-10T14:14:41;17.00;99.90
7844;DHT22;3967;48.702;9.326;2023-05-10T14:17:08;16.80;99.90
7844;DHT22;3967;48.702;9.326;2023-05-10T14:19:38;16.90;99.90
7844;DHT22;3967;48.702;9.326;2023-05-10T14:22:05;16.90;99.90
7844;DHT22;3967;48.702;9.326;2023-05-10T14:24:32;16.90;99.90
7844;DHT22;3967;48.702;9.326;2023-05-10T14:26:59;16.80;99.90
7844;DHT22;3967;48.702;9.326;2023-05-10T14:29:26;16.80;99.90
7844;DHT22;3967;48.702;9.326;2023-05-10T14:31:53;16.30;99.90
7844;DHT22;3967;48.702;9.326;2023-05-10T14:34:20;16.50;99.90
7844;DHT22;3967;48.702;9.326;2023-05-10T14:36:47;16.80;99.90
7844;DHT22;3967;48.702;9.326;2023-05-10T14:39:14;17.00;99.90
7844;DHT22;3967;48.702;9.326;2023-05-10T14:41:40;17.20;99.80
7844;DHT22;3967;48.702;9.326;2023-05-10T14:44:10;17.00;97.30
7844;DHT22;3967;48.702;9.326;2023-05-10T14:46:36;17.10;96.50
7844;DHT22;3967;48.702;9.326;2023-05-10T14:49:04;17.00;97.30
7844;DHT22;3967;48.702;9.326;2023-05-10T14:51:30;17.20;96.40
7844;DHT22;3967;48.702;9.326;2023-05-10T14:53:58;17.10;96.80
7844;DHT22;3967;48.702;9.326;2023-05-10T14:56:25;17.20;97.10
7844;DHT22;3967;48.702;9.326;2023-05-10T14:58:52;17.20;97.00
7844;DHT22;3967;48.702;9.326;2023-05-10T15:01:19;17.30;97.40
7844;DHT22;3967;48.702;9.326;2023-05-10T15:03:47;17.40;97.10
7844;DHT22;3967;48.702;9.326;2023-05-10T15:06:14;17.40;95.40
7844;DHT22;3967;48.702;9.326;2023-05-10T15:08:42;17.40;95.30
7844;DHT22;3967;48.702;9.326;2023-05-10T15:11:09;17.60;96.10
7844;DHT22;3967;48.702;9.326;2023-05-10T15:13:36;17.50;95.80
7844;DHT22;3967;48.702;9.326;2023-05-10T15:16:03;17.60;96.90
7844;DHT22;3967;48.702;9.326;2023-05-10T15:18:29;17.40;96.80
7844;DHT22;3967;48.702;9.326;2023-05-10T15:20:56;17.10;98.50
7844;DHT22;3967;48.702;9.326;2023-05-10T15:23:27;16.90;99.30
7844;DHT22;3967;48.702;9.326;2023-05-10T15:25:56;17.00;99.60
7844;DHT22;3967;48.702;9.326;2023-05-10T15:28:23;17.10;97.70
7844;DHT22;3967;48.702;9.326;2023-05-10T15:30:50;17.10;97.50
7844;DHT22;3967;48.702;9.326;2023-05-10T15:33:17;17.10;97.10
7844;DHT22;3967;48.702;9.326;2023-05-10T15:35:44;17.10;97.20
7844;DHT22;3967;48.702;9.326;2023-05-10T15:38:11;17.20;97.40
7844;DHT22;3967;48.702;9.326;2023-05-10T15:40:38;17.10;97.60
7844;DHT22;3967;48.702;9.326;2023-05-10T15:43:04;17.20;97.10
7844;DHT22;3967;48.702;9.326;2023-05-10T15:45:34;17.00;97.40
7844;DHT22;3967;48.702;9.326;2023-05-10T15:48:03;17.10;97.90
7844;DHT22;3967;48.702;9.326;2023-05-10T15:50:30;17.20;97.20
7844;DHT22;3967;48.702;9.326;2023-05-10T15:52:57;17.30;96.30
7844;DHT22;3967;48.702;9.326;2023-05-10T15:55:25;17.30;95.60
7844;DHT22;3967;48.702;9.326;2023-05-10T15:57:52;17.40;95.00
7844;DHT22;3967;48.702;9.326;2023-05-10T16:00:19;17.30;94.70
7844;DHT22;3967;48.702;9.326;2023-05-10T16:02:46;17.20;94.20
7844;DHT22;3967;48.702;9.326;2023-05-10T16:05:13;17.30;94.70
7844;DHT22;3967;48.702;9.326;2023-05-10T16:07:39;17.40;94.40
7844;DHT22;3967;48.702;9.326;2023-05-10T16:10:09;17.40;94.80
7844;DHT22;3967;48.702;9.326;2023-05-10T16:12:36;17.20;94.00
7844;DHT22;3967;48.702;9.326;2023-05-10T16:15:03;17.30;94.60
7844;DHT22;3967;48.702;9.326;2023-05-10T16:17:30;17.40;94.60
7844;DHT22;3967;48.702;9.326;2023-05-10T16:19:57;17.40;93.90
7844;DHT22;3967;48.702;9.326;2023-05-10T16:22:25;17.40;93.30
7844;DHT22;3967;48.702;9.326;2023-05-10T16:24:58;17.50;93.60
7844;DHT22;3967;48.702;9.326;2023-05-10T16:27:24;17.50;94.00
7844;DHT22;3967;48.702;9.326;2023-05-10T16:29:54;17.40;94.10
7844;DHT22;3967;48.702;9.326;2023-05-10T16:32:23;17.40;93.90
7844;DHT22;3967;48.702;9.326;2023-05-10T16:34:50;17.40;93.90
7844;DHT22;3967;48.702;9.326;2023-05-10T16:37:18;17.50;93.60
7844;DHT22;3967;48.702;9.326;2023-05-10T16:39:45;17.40;93.90
7844;DHT22;3967;48.702;9.326;2023-05-10T16:42:12;17.40;94.70
7844;DHT22;3967;48.702;9.326;2023-05-10T16:44:39;17.40;94.60
7844;DHT22;3967;48.702;9.326;2023-05-10T16:47:06;17.40;94.40
7844;DHT22;3967;48.702;9.326;2023-05-10T16:49:34;17.40;94.30
7844;DHT22;3967;48.702;9.326;2023-05-10T16:52:02;17.30;93.40
7844;DHT22;3967;48.702;9.326;2023-05-10T16:54:29;17.50;93.50
7844;DHT22;3967;48.702;9.326;2023-05-10T16:56:55;17.40;93.90
7844;DHT22;3967;48.702;9.326;2023-05-10T16:59:22;17.40;93.60
7844;DHT22;3967;48.702;9.326;2023-05-10T17:01:49;17.30;93.30
7844;DHT22;3967;48.702;9.326;2023-05-10T17:04:18;17.30;93.20
7844;DHT22;3967;48.702;9.326;2023-05-10T17:06:45;17.20;93.30
7844;DHT22;3967;48.702;9.326;2023-05-10T17:09:12;17.20;93.90
7844;DHT22;3967;48.702;9.326;2023-05-10T17:11:39;17.10;94.00